createdAt,value
2022-08-17T00:00:56.476Z,71.47
2022-08-17T00:01:56.515Z,71.97
2022-08-17T00:02:56.476Z,71.47
2022-08-17T00:03:56.447Z,72.27
2022-08-17T00:04:56.439Z,71.67
2022-08-17T00:05:56.430Z,71.87
2022-08-17T00:06:56.428Z,72.47
2022-08-17T00:07:56.441Z,71.97
2022-08-17T00:08:56.427Z,71.80
2022-08-17T00:09:56.384Z,71.90
2022-08-17T00:10:56.382Z,71.77
2022-08-17T00:12:34.883Z,71.70
2022-08-17T00:12:57.368Z,71.70
2022-08-17T00:13:56.377Z,72.41
2022-08-17T00:14:56.344Z,73.11
2022-08-17T00:15:56.333Z,72.61
2022-08-17T00:16:57.627Z,72.41
2022-08-17T00:17:56.315Z,72.71
2022-08-17T00:19:08.003Z,73.31
2022-08-17T00:19:57.288Z,73.11
2022-08-17T00:20:56.290Z,72.71
2022-08-17T00:22:31.323Z,72.91
2022-08-17T00:22:57.278Z,72.71
2022-08-17T00:23:56.264Z,72.81
2022-08-17T00:24:56.251Z,72.61
2022-08-17T00:25:56.252Z,72.91
2022-08-17T00:26:56.256Z,72.91
2022-08-17T00:27:56.213Z,72.64
2022-08-17T00:28:56.221Z,72.74
2022-08-17T00:29:56.214Z,73.24
2022-08-17T00:30:56.193Z,72.74
2022-08-17T00:31:56.181Z,72.74
2022-08-17T00:33:14.623Z,73.41
2022-08-17T00:33:57.158Z,72.84
2022-08-17T00:34:56.171Z,72.74
2022-08-17T00:35:56.177Z,73.14
2022-08-17T00:36:56.122Z,73.78
2022-08-17T00:37:56.104Z,73.48
2022-08-17T00:38:56.105Z,73.88
2022-08-17T00:39:56.181Z,73.58
2022-08-17T00:40:59.266Z,74.08
2022-08-17T00:41:56.084Z,74.38
2022-08-17T00:42:56.103Z,74.22
2022-08-17T00:43:56.073Z,73.58
2022-08-17T00:44:56.067Z,74.32
2022-08-17T00:45:56.041Z,74.38
2022-08-17T00:46:56.035Z,74.18
2022-08-17T00:47:56.023Z,74.29
2022-08-17T00:48:56.035Z,74.22
2022-08-17T00:49:56.017Z,74.29
2022-08-17T00:50:56.007Z,74.12
2022-08-17T00:51:55.986Z,74.18
2022-08-17T00:52:55.991Z,73.38
2022-08-17T00:53:55.973Z,74.08
2022-08-17T00:55:27.869Z,73.48
2022-08-17T00:55:55.970Z,73.72
2022-08-17T00:56:55.938Z,73.58
2022-08-17T00:57:55.930Z,73.72
2022-08-17T00:58:55.920Z,74.22
2022-08-17T01:00:03.284Z,74.93
2022-08-17T01:00:56.967Z,75.02
2022-08-17T01:01:55.898Z,75.02
2022-08-17T01:02:56.018Z,74.52
2022-08-17T01:03:59.825Z,74.93
2022-08-17T01:04:55.881Z,75.23
2022-08-17T01:05:55.847Z,75.33
2022-08-17T01:06:55.863Z,74.18
2022-08-17T01:07:55.830Z,74.49
2022-08-17T01:08:57.656Z,74.38
2022-08-17T01:09:55.817Z,74.32
2022-08-17T01:10:59.778Z,74.12
2022-08-17T01:11:55.791Z,74.42
2022-08-17T01:12:55.784Z,74.02
2022-08-17T01:13:55.769Z,74.12
2022-08-17T01:14:55.754Z,75.02
2022-08-17T01:15:55.764Z,74.93
2022-08-17T01:16:55.742Z,74.02
2022-08-17T01:17:55.725Z,75.02
2022-08-17T01:18:55.720Z,74.02
2022-08-17T01:19:55.710Z,74.08
2022-08-17T01:20:55.717Z,74.49
2022-08-17T01:21:55.703Z,74.18
2022-08-17T01:22:55.683Z,74.29
2022-08-17T01:23:55.668Z,74.22
2022-08-17T01:24:55.654Z,74.38
2022-08-17T01:25:55.651Z,74.18
2022-08-17T01:26:56.698Z,74.38
2022-08-17T01:27:55.666Z,74.32
2022-08-17T01:28:56.011Z,74.42
2022-08-17T01:29:56.619Z,74.62
2022-08-17T01:30:58.761Z,74.15
2022-08-17T01:31:55.586Z,74.86
2022-08-17T01:32:55.598Z,75.26
2022-08-17T01:33:55.569Z,75.46
2022-08-17T01:34:55.553Z,75.67
2022-08-17T01:35:55.543Z,75.16
2022-08-17T01:36:55.538Z,75.67
2022-08-17T01:37:55.533Z,75.56
2022-08-17T01:38:55.540Z,75.76
2022-08-17T01:39:55.638Z,75.76
2022-08-17T01:40:57.461Z,75.70
2022-08-17T01:41:55.495Z,75.56
2022-08-17T01:42:55.481Z,75.40
2022-08-17T01:43:55.469Z,75.60
2022-08-17T01:44:55.480Z,75.46
2022-08-17T01:46:02.528Z,75.76
2022-08-17T01:46:55.445Z,75.80
2022-08-17T01:47:55.463Z,75.67
2022-08-17T01:48:55.435Z,75.87
2022-08-17T01:49:55.425Z,75.87
2022-08-17T01:50:55.419Z,75.56
2022-08-17T01:51:55.416Z,75.56
2022-08-17T01:52:55.406Z,75.46
2022-08-17T01:53:55.385Z,75.26
2022-08-17T01:54:55.381Z,75.67
2022-08-17T01:55:55.367Z,75.76
2022-08-17T01:56:55.367Z,75.60
2022-08-17T01:57:55.347Z,75.60
2022-08-17T01:58:55.337Z,76.10
2022-08-17T01:59:55.361Z,76.14
2022-08-17T02:01:00.601Z,76.00
2022-08-17T02:01:55.371Z,75.80
2022-08-17T02:02:55.298Z,75.70
2022-08-17T02:04:00.405Z,75.90
2022-08-17T02:04:56.277Z,75.80
2022-08-17T02:05:55.278Z,76.64
2022-08-17T02:06:55.244Z,76.54
2022-08-17T02:07:59.999Z,76.75
2022-08-17T02:09:02.566Z,76.64
2022-08-17T02:09:55.235Z,77.11
2022-08-17T02:10:55.223Z,77.01
2022-08-17T02:11:56.369Z,76.84
2022-08-17T02:12:55.197Z,77.04
2022-08-17T02:13:55.201Z,77.04
2022-08-17T02:14:56.206Z,77.25
2022-08-17T02:15:55.171Z,77.15
2022-08-17T02:16:55.183Z,77.25
2022-08-17T02:17:55.161Z,76.95
2022-08-17T02:18:55.159Z,77.35
2022-08-17T02:19:55.189Z,77.55
2022-08-17T02:20:55.114Z,77.04
2022-08-17T02:21:55.118Z,77.51
2022-08-17T02:22:55.101Z,77.55
2022-08-17T02:23:55.102Z,77.51
2022-08-17T02:24:59.901Z,77.31
2022-08-17T02:25:56.089Z,77.04
2022-08-17T02:26:55.072Z,77.21
2022-08-17T02:27:55.060Z,76.95
2022-08-17T02:28:55.066Z,76.61
2022-08-17T02:29:55.036Z,76.51
2022-08-17T02:31:01.105Z,76.51
2022-08-17T02:31:56.023Z,76.61
2022-08-17T02:32:55.007Z,76.10
2022-08-17T02:34:03.301Z,76.04
2022-08-17T02:34:54.982Z,76.00
2022-08-17T02:35:54.988Z,76.10
2022-08-17T02:36:54.965Z,75.90
2022-08-17T02:37:55.803Z,76.75
2022-08-17T02:38:54.964Z,76.75
2022-08-17T02:39:54.996Z,77.25
2022-08-17T02:40:54.934Z,76.64
2022-08-17T02:41:54.920Z,76.75
2022-08-17T02:42:54.910Z,76.64
2022-08-17T02:43:54.914Z,76.84
2022-08-17T02:44:54.898Z,76.95
2022-08-17T02:45:54.878Z,77.35
2022-08-17T02:46:54.891Z,77.55
2022-08-17T02:47:54.873Z,77.45
2022-08-17T02:48:54.858Z,77.55
2022-08-17T02:49:55.937Z,77.49
2022-08-17T02:50:54.816Z,77.59
2022-08-17T02:51:54.819Z,77.59
2022-08-17T02:53:01.856Z,77.73
2022-08-17T02:54:38.838Z,77.59
2022-08-17T02:54:55.805Z,78.53
2022-08-17T02:55:54.769Z,78.53
2022-08-17T02:56:54.782Z,78.94
2022-08-17T02:57:54.754Z,78.74
2022-08-17T02:58:54.768Z,78.84
2022-08-17T02:59:54.743Z,78.63
2022-08-17T03:00:54.734Z,78.70
2022-08-17T03:01:54.798Z,78.63
2022-08-17T03:02:54.721Z,78.30
2022-08-17T03:03:54.734Z,77.49
2022-08-17T03:04:54.706Z,78.50
2022-08-17T03:05:54.684Z,77.39
2022-08-17T03:06:54.672Z,77.59
2022-08-17T03:07:54.675Z,77.69
2022-08-17T03:08:54.664Z,77.08
2022-08-17T03:09:54.682Z,77.59
2022-08-17T03:10:54.646Z,77.59
2022-08-17T03:11:55.897Z,77.39
2022-08-17T03:12:54.619Z,77.28
2022-08-17T03:13:54.603Z,77.79
2022-08-17T03:14:54.648Z,78.30
2022-08-17T03:15:54.582Z,78.74
2022-08-17T03:16:54.574Z,78.59
2022-08-17T03:17:54.571Z,78.74
2022-08-17T03:18:54.557Z,78.50
2022-08-17T03:19:54.549Z,79.14
2022-08-17T03:20:54.574Z,79.04
2022-08-17T03:21:55.172Z,78.63
2022-08-17T03:22:54.948Z,79.44
2022-08-17T03:23:55.537Z,79.54
2022-08-17T03:24:54.489Z,79.04
2022-08-17T03:25:54.491Z,78.74
2022-08-17T03:26:54.477Z,79.34
2022-08-17T03:27:54.482Z,78.63
2022-08-17T03:28:54.469Z,79.30
2022-08-17T03:29:54.455Z,79.54
2022-08-17T03:30:54.447Z,79.54
2022-08-17T03:31:54.438Z,79.94
2022-08-17T03:32:54.429Z,79.94
2022-08-17T03:33:54.412Z,79.79
2022-08-17T03:34:54.405Z,79.94
2022-08-17T03:35:54.390Z,79.79
2022-08-17T03:36:54.376Z,80.69
2022-08-17T03:38:00.504Z,80.49
2022-08-17T03:38:55.395Z,80.39
2022-08-17T03:39:54.390Z,80.49
2022-08-17T03:40:57.472Z,80.69
2022-08-17T03:41:55.321Z,81.03
2022-08-17T03:42:54.324Z,80.93
2022-08-17T03:43:54.339Z,80.93
2022-08-17T03:44:54.305Z,81.23
2022-08-17T03:45:54.296Z,81.44
2022-08-17T03:46:54.290Z,81.74
2022-08-17T03:47:54.277Z,81.54
2022-08-17T03:48:54.258Z,81.64
2022-08-17T03:49:54.285Z,81.44
2022-08-17T03:50:54.251Z,81.03
2022-08-17T03:51:54.225Z,80.90
2022-08-17T03:52:54.247Z,81.03
2022-08-17T03:53:55.210Z,80.90
2022-08-17T03:54:54.210Z,80.69
2022-08-17T03:55:54.195Z,80.29
2022-08-17T03:56:54.177Z,80.59
2022-08-17T03:57:54.187Z,79.99
2022-08-17T03:58:54.198Z,80.49
2022-08-17T03:59:54.163Z,80.15
2022-08-17T04:00:54.147Z,80.15
2022-08-17T04:01:54.283Z,79.94
2022-08-17T04:02:54.126Z,79.54
2022-08-17T04:03:54.146Z,79.04
2022-08-17T04:04:54.111Z,78.84
2022-08-17T04:05:54.095Z,78.84
2022-08-17T04:06:54.104Z,78.94
2022-08-17T04:07:54.069Z,78.74
2022-08-17T04:08:54.069Z,78.63
2022-08-17T04:09:54.075Z,79.04
2022-08-17T04:10:54.048Z,79.54
2022-08-17T04:11:54.033Z,79.34
2022-08-17T04:12:54.063Z,79.54
2022-08-17T04:13:54.024Z,79.64
2022-08-17T04:14:55.289Z,79.85
2022-08-17T04:15:55.012Z,79.94
2022-08-17T04:16:54.072Z,79.54
2022-08-17T04:17:53.982Z,79.79
2022-08-17T04:18:54.986Z,79.64
2022-08-17T04:19:53.994Z,79.74
2022-08-17T04:20:53.954Z,79.24
2022-08-17T04:21:53.967Z,78.74
2022-08-17T04:22:53.970Z,78.84
2022-08-17T04:23:53.911Z,78.80
2022-08-17T04:24:54.919Z,79.24
2022-08-17T04:25:53.916Z,79.61
2022-08-17T04:26:54.783Z,78.74
2022-08-17T04:27:54.913Z,78.23
2022-08-17T04:28:53.876Z,78.63
2022-08-17T04:29:55.666Z,78.33
2022-08-17T04:30:53.855Z,78.13
2022-08-17T04:31:53.861Z,78.33
2022-08-17T04:33:04.632Z,78.03
2022-08-17T04:33:53.829Z,78.23
2022-08-17T04:34:53.816Z,78.84
2022-08-17T04:35:53.830Z,78.53
2022-08-17T04:36:53.800Z,78.94
2022-08-17T04:37:53.803Z,78.94
2022-08-17T04:38:53.782Z,78.13
2022-08-17T04:39:53.806Z,77.83
2022-08-17T04:40:53.796Z,78.13
2022-08-17T04:41:53.774Z,77.39
2022-08-17T04:42:53.742Z,77.66
2022-08-17T04:43:54.725Z,77.04
2022-08-17T04:44:53.714Z,76.64
2022-08-17T04:45:55.916Z,76.00
2022-08-17T04:46:53.722Z,75.50
2022-08-17T04:47:53.700Z,75.80
2022-08-17T04:48:53.681Z,75.16
2022-08-17T04:49:53.665Z,75.36
2022-08-17T04:50:53.663Z,75.56
2022-08-17T04:51:55.733Z,74.96
2022-08-17T04:52:53.721Z,75.06
2022-08-17T04:53:54.424Z,75.06
2022-08-17T04:54:54.613Z,74.02
2022-08-17T04:55:53.614Z,73.98
2022-08-17T04:56:53.634Z,72.71
2022-08-17T04:57:54.587Z,71.26
2022-08-17T04:58:53.577Z,69.79
2022-08-17T04:59:53.568Z,68.19
2022-08-17T05:00:53.586Z,65.01
2022-08-17T05:01:53.592Z,64.15
2022-08-17T05:02:53.759Z,62.56
2022-08-17T05:03:53.539Z,61.13
2022-08-17T05:04:53.513Z,60.17
2022-08-17T05:05:53.512Z,58.95
2022-08-17T05:06:53.502Z,57.90
2022-08-17T05:07:53.506Z,57.67
2022-08-17T05:08:53.519Z,56.52
2022-08-17T05:09:53.473Z,55.47
2022-08-17T05:10:53.471Z,54.55
2022-08-17T05:11:53.454Z,53.53
2022-08-17T05:12:53.451Z,53.33
2022-08-17T05:13:53.454Z,53.14
2022-08-17T05:14:53.423Z,52.69
2022-08-17T05:15:53.434Z,53.01
2022-08-17T05:16:53.412Z,52.42
2022-08-17T05:17:53.403Z,52.74
2022-08-17T05:18:53.400Z,53.46
2022-08-17T05:19:53.370Z,53.26
2022-08-17T05:20:53.357Z,53.76
2022-08-17T05:21:53.368Z,52.94
2022-08-17T05:22:53.343Z,53.36
2022-08-17T05:23:54.849Z,53.33
2022-08-17T05:24:53.828Z,53.61
2022-08-17T05:25:53.329Z,52.79
2022-08-17T05:26:53.302Z,51.75
2022-08-17T05:27:53.307Z,51.12
2022-08-17T05:28:53.339Z,49.99
2022-08-17T05:29:53.273Z,49.17
2022-08-17T05:30:53.266Z,48.26
2022-08-17T05:31:53.257Z,47.62
2022-08-17T05:32:53.356Z,47.25
2022-08-17T05:33:53.301Z,47.15
2022-08-17T05:34:53.257Z,48.55
2022-08-17T05:35:53.221Z,48.55
2022-08-17T05:36:53.213Z,48.75
2022-08-17T05:37:53.212Z,48.55
2022-08-17T05:38:53.215Z,49.02
2022-08-17T05:39:53.304Z,47.03
2022-08-17T05:40:53.190Z,47.52
2022-08-17T05:41:53.172Z,46.31
2022-08-17T05:42:53.316Z,47.20
2022-08-17T05:43:56.426Z,46.59
2022-08-17T05:44:54.165Z,44.84
2022-08-17T05:45:55.657Z,45.43
2022-08-17T05:46:53.129Z,44.74
2022-08-17T05:47:53.116Z,44.72
2022-08-17T05:48:53.106Z,45.14
2022-08-17T05:49:53.912Z,45.02
2022-08-17T05:50:53.088Z,43.99
2022-08-17T05:51:53.099Z,42.81
2022-08-17T05:52:53.077Z,43.91
2022-08-17T05:53:53.054Z,42.91
2022-08-17T05:54:53.063Z,44.38
2022-08-17T05:55:53.045Z,44.78
2022-08-17T05:56:53.045Z,44.19
2022-08-17T05:57:54.182Z,43.50
2022-08-17T05:58:53.013Z,44.09
2022-08-17T05:59:53.021Z,44.72
2022-08-17T06:00:53.022Z,43.91
2022-08-17T06:01:52.989Z,43.70
2022-08-17T06:02:53.295Z,44.58
2022-08-17T06:03:52.991Z,42.83
2022-08-17T06:04:52.991Z,42.91
2022-08-17T06:05:52.957Z,42.71
2022-08-17T06:06:52.979Z,43.48
2022-08-17T06:07:52.947Z,42.59
2022-08-17T06:08:52.942Z,43.57
2022-08-17T06:09:52.933Z,42.18
2022-08-17T06:10:52.923Z,43.26
2022-08-17T06:11:53.342Z,42.30
2022-08-17T06:12:52.892Z,43.01
2022-08-17T06:13:52.892Z,42.89
2022-08-17T06:14:52.870Z,42.40
2022-08-17T06:15:52.872Z,42.81
2022-08-17T06:16:52.959Z,43.01
2022-08-17T06:17:52.870Z,43.71
2022-08-17T06:18:52.833Z,44.01
2022-08-17T06:19:52.837Z,44.29
2022-08-17T06:20:52.817Z,43.57
2022-08-17T06:21:52.834Z,43.75
2022-08-17T06:22:52.935Z,42.06
2022-08-17T06:23:52.799Z,42.38
2022-08-17T06:24:52.792Z,41.88
2022-08-17T06:25:52.788Z,42.16
2022-08-17T06:26:52.768Z,41.55
2022-08-17T06:27:53.386Z,41.33
2022-08-17T06:28:52.768Z,41.43
2022-08-17T06:29:52.763Z,41.21
2022-08-17T06:31:00.722Z,41.53
2022-08-17T06:31:53.739Z,41.24
2022-08-17T06:32:52.900Z,41.03
2022-08-17T06:33:52.708Z,41.03
2022-08-17T06:34:52.725Z,40.33
2022-08-17T06:35:52.700Z,40.62
2022-08-17T06:36:52.712Z,40.94
2022-08-17T06:37:52.670Z,41.84
2022-08-17T06:38:52.698Z,41.25
2022-08-17T06:39:53.645Z,42.02
2022-08-17T06:40:52.646Z,41.55
2022-08-17T06:41:52.655Z,41.25
2022-08-17T06:43:06.667Z,41.84
2022-08-17T06:43:53.650Z,41.77
2022-08-17T06:44:52.611Z,41.78
2022-08-17T06:45:52.609Z,42.08
2022-08-17T06:46:52.607Z,41.27
2022-08-17T06:47:52.614Z,41.74
2022-08-17T06:48:52.578Z,40.94
2022-08-17T06:49:55.424Z,41.24
2022-08-17T06:50:52.572Z,41.43
2022-08-17T06:51:52.562Z,41.51
2022-08-17T06:52:52.564Z,40.70
2022-08-17T06:53:52.560Z,40.00
2022-08-17T06:56:04.652Z,39.59
2022-08-17T06:57:04.649Z,38.96
2022-08-17T06:58:15.648Z,38.65
2022-08-17T06:59:06.786Z,37.75
2022-08-17T07:00:05.759Z,38.18
2022-08-17T07:01:05.844Z,37.75
2022-08-17T07:02:05.743Z,38.96
2022-08-17T07:03:05.979Z,39.39
2022-08-17T07:04:11.976Z,39.62
2022-08-17T07:05:05.710Z,40.31
2022-08-17T07:06:05.716Z,39.61
2022-08-17T07:07:05.701Z,40.08
2022-08-17T07:08:05.693Z,40.23
2022-08-17T07:09:05.692Z,40.58
2022-08-17T07:10:05.684Z,39.80
2022-08-17T07:11:05.689Z,39.39
2022-08-17T07:12:05.657Z,39.27
2022-08-17T07:13:05.640Z,39.54
2022-08-17T07:14:05.635Z,39.47
2022-08-17T07:15:05.630Z,39.31
2022-08-17T07:16:05.641Z,41.09
2022-08-17T07:17:05.609Z,39.86
2022-08-17T07:18:05.604Z,39.14
2022-08-17T07:19:05.588Z,38.04
2022-08-17T07:20:05.583Z,39.10
2022-08-17T07:21:05.581Z,38.57
2022-08-17T07:22:05.598Z,37.55
2022-08-17T07:23:05.558Z,38.84
2022-08-17T07:24:05.548Z,37.67
2022-08-17T07:25:05.556Z,38.82
2022-08-17T07:26:05.540Z,38.43
2022-08-17T07:27:05.584Z,38.45
2022-08-17T07:28:06.817Z,37.83
2022-08-17T07:29:05.546Z,38.20
2022-08-17T07:30:09.708Z,38.16
2022-08-17T07:31:06.490Z,37.67
2022-08-17T07:32:05.500Z,38.06
2022-08-17T07:33:05.478Z,37.96
2022-08-17T07:34:05.467Z,38.04
2022-08-17T07:35:05.485Z,36.90
2022-08-17T07:36:05.449Z,37.89
2022-08-17T07:37:05.484Z,37.99
2022-08-17T07:38:05.458Z,38.48
2022-08-17T07:39:06.430Z,37.96
2022-08-17T07:40:16.357Z,38.35
2022-08-17T07:41:06.416Z,38.18
2022-08-17T07:42:05.412Z,38.26
2022-08-17T07:43:05.454Z,37.37
2022-08-17T07:44:05.428Z,37.67
2022-08-17T07:45:05.388Z,37.65
2022-08-17T07:46:05.393Z,37.85
2022-08-17T07:47:05.365Z,37.38
2022-08-17T07:48:05.362Z,37.96
2022-08-17T07:49:05.377Z,37.70
2022-08-17T07:50:05.351Z,37.87
2022-08-17T07:51:05.344Z,38.06
2022-08-17T07:52:28.263Z,38.26
2022-08-17T07:53:06.339Z,37.27
2022-08-17T07:54:14.642Z,37.75
2022-08-17T07:55:07.329Z,37.75
2022-08-17T07:56:05.274Z,38.34
2022-08-17T07:57:05.298Z,36.76
2022-08-17T07:58:05.286Z,37.05
2022-08-17T07:59:05.274Z,36.49
2022-08-17T08:00:05.270Z,37.15
2022-08-17T08:01:05.254Z,35.88
2022-08-17T08:02:05.551Z,36.49
2022-08-17T08:03:05.219Z,37.35
2022-08-17T08:04:05.758Z,37.27
2022-08-17T08:05:06.741Z,38.35
2022-08-17T08:06:05.228Z,38.28
2022-08-17T08:07:05.196Z,37.99
2022-08-17T08:08:05.190Z,37.99
2022-08-17T08:09:05.179Z,37.50
2022-08-17T08:10:05.170Z,37.87
2022-08-17T08:11:05.188Z,36.31
2022-08-17T08:12:05.164Z,37.79
2022-08-17T08:13:05.164Z,37.29
2022-08-17T08:14:05.161Z,37.38
2022-08-17T08:15:05.139Z,36.39
2022-08-17T08:16:05.151Z,37.07
2022-08-17T08:17:05.192Z,37.07
2022-08-17T08:18:05.108Z,36.58
2022-08-17T08:19:05.101Z,36.60
2022-08-17T08:20:34.892Z,36.90
2022-08-17T08:21:06.094Z,36.93
2022-08-17T08:22:05.074Z,38.10
2022-08-17T08:23:05.178Z,38.32
2022-08-17T08:24:05.089Z,38.22
2022-08-17T08:25:05.076Z,38.69
2022-08-17T08:26:05.051Z,37.62
2022-08-17T08:27:05.038Z,38.40
2022-08-17T08:28:05.018Z,39.28
2022-08-17T08:29:05.018Z,37.40
2022-08-17T08:30:05.053Z,37.21
2022-08-17T08:31:05.084Z,37.89
2022-08-17T08:32:05.588Z,38.16
2022-08-17T08:33:05.069Z,37.99
2022-08-17T08:34:05.078Z,38.40
2022-08-17T08:35:04.958Z,38.16
2022-08-17T08:36:04.988Z,37.96
2022-08-17T08:37:15.726Z,36.49
2022-08-17T08:38:05.953Z,36.10
2022-08-17T08:39:04.930Z,35.98
2022-08-17T08:40:05.006Z,36.74
2022-08-17T08:41:04.947Z,37.05
2022-08-17T08:42:04.938Z,36.10
2022-08-17T08:43:04.885Z,36.96
2022-08-17T08:44:04.886Z,36.98
2022-08-17T08:45:05.515Z,37.27
2022-08-17T08:46:04.867Z,37.63
2022-08-17T08:47:04.860Z,36.96
2022-08-17T08:48:05.441Z,37.55
2022-08-17T08:49:11.978Z,37.96
2022-08-17T08:50:06.850Z,37.91
2022-08-17T08:51:04.819Z,37.93
2022-08-17T08:52:04.807Z,37.93
2022-08-17T08:53:04.818Z,38.02
2022-08-17T08:54:04.803Z,38.92
2022-08-17T08:55:04.786Z,38.89
2022-08-17T08:56:04.774Z,36.99
2022-08-17T08:57:24.370Z,36.66
2022-08-17T08:58:06.749Z,35.65
2022-08-17T08:59:05.757Z,36.27
2022-08-17T09:00:04.755Z,36.45
2022-08-17T09:01:04.777Z,35.96
2022-08-17T09:02:04.751Z,36.82
2022-08-17T09:03:04.708Z,35.83
2022-08-17T09:04:19.919Z,36.35
2022-08-17T09:05:15.223Z,36.47
2022-08-17T09:06:06.691Z,35.90
2022-08-17T09:07:04.713Z,36.02
2022-08-17T09:08:04.695Z,36.62
2022-08-17T09:09:04.655Z,36.34
2022-08-17T09:10:04.648Z,36.54
2022-08-17T09:11:04.635Z,37.16
2022-08-17T09:12:05.489Z,38.35
2022-08-17T09:13:09.911Z,38.35
2022-08-17T09:14:06.799Z,38.28
2022-08-17T09:15:09.449Z,38.98
2022-08-17T09:16:04.616Z,38.98
2022-08-17T09:17:04.595Z,39.19
2022-08-17T09:19:01.263Z,40.08
2022-08-17T09:19:06.878Z,39.19
2022-08-17T09:20:04.603Z,39.56
2022-08-17T09:21:04.633Z,38.16
2022-08-17T09:22:04.555Z,37.85
2022-08-17T09:23:05.334Z,38.10
2022-08-17T09:24:04.568Z,36.90
2022-08-17T09:25:04.532Z,37.07
2022-08-17T09:26:04.531Z,36.70
2022-08-17T09:27:04.539Z,38.12
2022-08-17T09:28:04.516Z,38.02
2022-08-17T09:29:08.981Z,38.82
2022-08-17T09:30:04.566Z,37.95
2022-08-17T09:31:04.465Z,38.16
2022-08-17T09:32:04.525Z,38.06
2022-08-17T09:33:05.459Z,39.23
2022-08-17T09:34:05.350Z,38.82
2022-08-17T09:35:04.476Z,37.73
2022-08-17T09:36:04.490Z,37.62
2022-08-17T09:37:04.437Z,36.90
2022-08-17T09:38:04.429Z,35.30
2022-08-17T09:39:04.421Z,35.47
2022-08-17T09:40:04.422Z,34.21
2022-08-17T09:41:04.392Z,35.28
2022-08-17T09:42:04.378Z,36.84
2022-08-17T09:43:04.385Z,35.46
2022-08-17T09:44:04.372Z,35.20
2022-08-17T09:45:04.344Z,33.65
2022-08-17T09:46:04.354Z,35.12
2022-08-17T09:47:04.343Z,34.44
2022-08-17T09:48:04.324Z,36.62
2022-08-17T09:49:04.331Z,35.46
2022-08-17T09:50:04.338Z,36.55
2022-08-17T09:51:06.409Z,36.07
2022-08-17T09:52:05.289Z,36.96
2022-08-17T09:53:04.276Z,36.96
2022-08-17T09:54:27.767Z,36.38
2022-08-17T09:55:06.289Z,36.67
2022-08-17T09:56:04.248Z,35.61
2022-08-17T09:57:27.863Z,36.49
2022-08-17T09:58:06.242Z,37.00
2022-08-17T09:59:04.234Z,37.00
2022-08-17T10:00:04.233Z,37.00
2022-08-17T10:01:04.256Z,36.90
2022-08-17T10:02:04.211Z,37.08
2022-08-17T10:03:04.210Z,37.57
2022-08-17T10:04:04.185Z,36.28
2022-08-17T10:05:04.178Z,37.16
2022-08-17T10:06:06.391Z,36.38
2022-08-17T10:07:04.155Z,36.85
2022-08-17T10:08:04.195Z,35.48
2022-08-17T10:09:04.145Z,35.68
2022-08-17T10:10:04.133Z,35.09
2022-08-17T10:11:04.128Z,36.07
2022-08-17T10:12:04.113Z,35.38
2022-08-17T10:13:04.129Z,35.75
2022-08-17T10:14:24.076Z,35.17
2022-08-17T10:15:08.181Z,35.87
2022-08-17T10:16:05.092Z,37.04
2022-08-17T10:17:04.080Z,36.65
2022-08-17T10:18:04.065Z,35.87
2022-08-17T10:19:04.059Z,36.54
2022-08-17T10:20:04.051Z,36.72
2022-08-17T10:21:04.043Z,36.83
2022-08-17T10:22:14.627Z,36.34
2022-08-17T10:23:05.027Z,37.32
2022-08-17T10:24:04.008Z,36.94
2022-08-17T10:25:13.530Z,37.35
2022-08-17T10:26:04.991Z,38.45
2022-08-17T10:27:03.987Z,37.88
2022-08-17T10:28:03.979Z,37.81
2022-08-17T10:29:03.974Z,38.21
2022-08-17T10:30:03.982Z,38.31
2022-08-17T10:31:33.806Z,38.21
2022-08-17T10:32:05.934Z,38.02
2022-08-17T10:33:03.933Z,38.21
2022-08-17T10:34:03.948Z,37.81
2022-08-17T10:35:03.927Z,38.98
2022-08-17T10:36:08.701Z,38.70
2022-08-17T10:37:05.911Z,39.31
2022-08-17T10:38:03.875Z,39.31
2022-08-17T10:39:03.873Z,39.01
2022-08-17T10:40:03.945Z,39.90
2022-08-17T10:41:03.849Z,38.53
2022-08-17T10:42:03.884Z,39.31
2022-08-17T10:43:03.845Z,39.01
2022-08-17T10:44:40.392Z,38.25
2022-08-17T10:45:04.833Z,39.03
2022-08-17T10:46:27.694Z,38.43
2022-08-17T10:47:04.823Z,39.11
2022-08-17T10:48:06.233Z,38.92
2022-08-17T10:49:04.790Z,38.25
2022-08-17T10:50:03.767Z,38.35
2022-08-17T10:51:03.775Z,38.92
2022-08-17T10:52:03.776Z,38.23
2022-08-17T10:53:03.756Z,38.06
2022-08-17T10:54:03.753Z,38.45
2022-08-17T10:55:03.728Z,38.06
2022-08-17T10:56:03.719Z,38.25
2022-08-17T10:57:03.739Z,38.72
2022-08-17T10:58:03.699Z,38.54
2022-08-17T10:59:03.729Z,38.35
2022-08-17T11:00:03.776Z,37.78
2022-08-17T11:01:03.729Z,39.62
2022-08-17T11:02:03.665Z,38.54
2022-08-17T11:03:03.657Z,38.54
2022-08-17T11:04:03.671Z,38.45
2022-08-17T11:05:03.665Z,38.06
2022-08-17T11:06:03.628Z,39.14
2022-08-17T11:07:03.608Z,38.37
2022-08-17T11:08:03.646Z,38.17
2022-08-17T11:09:03.607Z,39.15
2022-08-17T11:10:03.644Z,38.56
2022-08-17T11:11:03.600Z,39.25
2022-08-17T11:12:03.575Z,39.35
2022-08-17T11:13:03.572Z,39.47
2022-08-17T11:14:03.568Z,39.37
2022-08-17T11:15:03.565Z,39.27
2022-08-17T11:16:08.092Z,39.58
2022-08-17T11:17:04.516Z,39.68
2022-08-17T11:18:03.517Z,40.08
2022-08-17T11:19:03.523Z,40.29
2022-08-17T11:20:03.528Z,41.19
2022-08-17T11:21:03.491Z,41.39
2022-08-17T11:22:03.495Z,41.49
2022-08-17T11:23:03.474Z,42.30
2022-08-17T11:24:03.473Z,41.51
2022-08-17T11:25:03.454Z,42.08
2022-08-17T11:26:03.463Z,42.00
2022-08-17T11:27:03.443Z,41.69
2022-08-17T11:28:03.425Z,41.29
2022-08-17T11:29:03.451Z,41.78
2022-08-17T11:30:03.425Z,42.28
2022-08-17T11:31:03.414Z,42.18
2022-08-17T11:32:03.384Z,42.08
2022-08-17T11:33:03.387Z,41.88
2022-08-17T11:34:03.419Z,41.31
2022-08-17T11:35:03.358Z,41.90
2022-08-17T11:36:03.362Z,42.59
2022-08-17T11:37:03.332Z,41.22
2022-08-17T11:38:03.325Z,41.22
2022-08-17T11:39:03.314Z,40.31
2022-08-17T11:40:03.371Z,40.53
2022-08-17T11:41:03.298Z,41.41
2022-08-17T11:42:03.291Z,40.80
2022-08-17T11:43:03.290Z,40.70
2022-08-17T11:44:03.296Z,40.19
2022-08-17T11:45:03.293Z,40.19
2022-08-17T11:46:03.268Z,39.90
2022-08-17T11:47:03.260Z,39.58
2022-08-17T11:48:26.756Z,39.88
2022-08-17T11:49:05.225Z,39.98
2022-08-17T11:50:03.204Z,39.66
2022-08-17T11:51:03.267Z,39.37
2022-08-17T11:52:03.213Z,39.07
2022-08-17T11:53:03.207Z,39.07
2022-08-17T11:54:31.138Z,37.68
2022-08-17T11:55:31.936Z,39.06
2022-08-17T11:56:04.193Z,38.84
2022-08-17T11:57:03.220Z,37.74
2022-08-17T11:58:03.163Z,38.35
2022-08-17T11:59:03.146Z,37.25
2022-08-17T12:00:03.142Z,38.33
2022-08-17T12:01:03.123Z,37.84
2022-08-17T12:02:03.131Z,38.23
2022-08-17T12:03:03.111Z,38.84
2022-08-17T12:04:03.169Z,38.25
2022-08-17T12:05:03.090Z,39.11
2022-08-17T12:06:03.078Z,39.01
2022-08-17T12:07:03.087Z,38.15
2022-08-17T12:08:03.046Z,38.56
2022-08-17T12:09:03.047Z,39.35
2022-08-17T12:10:03.021Z,38.09
2022-08-17T12:11:03.029Z,38.78
2022-08-17T12:12:13.904Z,38.19
2022-08-17T12:13:04.022Z,39.07
2022-08-17T12:14:02.993Z,39.48
2022-08-17T12:15:11.773Z,39.48
2022-08-17T12:16:05.012Z,39.48
2022-08-17T12:17:02.964Z,39.86
2022-08-17T12:18:02.966Z,39.58
2022-08-17T12:19:02.949Z,39.76
2022-08-17T12:20:03.060Z,40.16
2022-08-17T12:21:02.961Z,39.27
2022-08-17T12:22:02.952Z,39.37
2022-08-17T12:23:02.914Z,40.03
2022-08-17T12:24:02.901Z,39.56
2022-08-17T12:25:02.886Z,39.95
2022-08-17T12:26:02.896Z,40.08
2022-08-17T12:27:02.886Z,40.66
2022-08-17T12:28:05.591Z,39.68
2022-08-17T12:29:02.842Z,39.60
2022-08-17T12:30:02.865Z,39.92
2022-08-17T12:31:02.843Z,40.41
2022-08-17T12:32:02.821Z,40.51
2022-08-17T12:33:02.806Z,41.27
2022-08-17T12:34:02.806Z,41.69
2022-08-17T12:35:02.833Z,41.39
2022-08-17T12:36:02.804Z,41.29
2022-08-17T12:37:02.785Z,41.39
2022-08-17T12:38:02.776Z,41.98
2022-08-17T12:39:13.921Z,41.31
2022-08-17T12:40:02.935Z,42.02
2022-08-17T12:41:02.829Z,42.02
2022-08-17T12:42:03.088Z,41.33
2022-08-17T12:43:02.727Z,41.83
2022-08-17T12:44:02.757Z,41.33
2022-08-17T12:45:02.746Z,41.73
2022-08-17T12:46:13.380Z,42.02
2022-08-17T12:47:03.685Z,42.04
2022-08-17T12:48:02.737Z,41.85
2022-08-17T12:49:02.706Z,42.54
2022-08-17T12:50:02.647Z,42.04
2022-08-17T12:51:02.637Z,43.62
2022-08-17T12:52:02.651Z,43.32
2022-08-17T12:53:02.877Z,43.71
2022-08-17T12:54:02.619Z,43.44